Time;durP1;ratioP1;P1;durP2;ratioP2;P2;SDS_P1;SDS_P2;PMS_P1;PMS_P2;Temp;Humidity;BMP_temperature;BMP_pressure;BME280_temperature;BME280_humidity;BME280_pressure;Samples;Min_cycle;Max_cycle;Signal;HPM_P1;HPM_P2
2023/06/01 00:02:03;;;;;;;20.40;8.45;;;17.10;99.90;;;;;;4915628;29;20032;-73
2023/06/01 00:04:29;;;;;;;15.23;8.43;;;17.10;99.90;;;;;;4915722;29;20040;-72
2023/06/01 00:06:56;;;;;;;16.20;7.70;;;17.00;99.90;;;;;;4915501;29;20020;-72
2023/06/01 00:09:21;;;;;;;15.48;7.80;;;17.00;99.90;;;;;;4915517;29;20046;-73
2023/06/01 00:11:47;;;;;;;16.00;8.88;;;17.00;99.90;;;;;;4915706;29;20042;-73
2023/06/01 00:14:13;;;;;;;14.98;7.60;;;16.90;99.90;;;;;;4915468;29;20115;-73
2023/06/01 00:16:39;;;;;;;14.25;8.30;;;16.90;99.90;;;;;;4915482;29;20039;-73
2023/06/01 00:19:05;;;;;;;16.88;8.00;;;17.00;99.90;;;;;;4914653;29;20038;-73
2023/06/01 00:21:32;;;;;;;14.48;8.10;;;16.90;99.90;;;;;;4924028;29;20404;-73
2023/06/01 00:23:58;;;;;;;15.30;7.43;;;17.00;99.90;;;;;;4915569;29;20064;-72
2023/06/01 00:26:25;;;;;;;18.83;7.90;;;17.00;99.90;;;;;;4919570;29;20024;-72
2023/06/01 00:28:52;;;;;;;15.20;7.70;;;16.90;99.90;;;;;;4919043;29;20577;-72
2023/06/01 00:31:18;;;;;;;15.65;7.82;;;16.90;99.90;;;;;;4926138;29;20127;-71
2023/06/01 00:33:44;;;;;;;14.55;7.97;;;16.90;99.90;;;;;;4916911;29;20085;-72
2023/06/01 00:36:10;;;;;;;15.63;8.48;;;16.90;99.90;;;;;;4911183;29;20032;-72
2023/06/01 00:38:36;;;;;;;17.50;8.07;;;16.80;99.90;;;;;;4928854;29;20582;-72
2023/06/01 00:41:02;;;;;;;15.38;8.05;;;16.90;99.90;;;;;;4902580;29;20028;-72
2023/06/01 00:43:27;;;;;;;19.50;8.70;;;17.00;99.90;;;;;;4929737;29;20031;-72
2023/06/01 00:45:54;;;;;;;16.38;8.43;;;17.00;99.90;;;;;;4920488;29;20040;-72
2023/06/01 00:48:20;;;;;;;15.88;8.50;;;17.00;99.90;;;;;;4901865;29;20036;-72
2023/06/01 00:50:47;;;;;;;17.70;8.27;;;17.00;99.90;;;;;;4920201;29;20040;-72
2023/06/01 00:53:20;;;;;;;15.45;7.65;;;17.00;99.90;;;;;;4920037;29;20032;-72
2023/06/01 00:55:46;;;;;;;12.70;6.90;;;17.10;99.90;;;;;;4905297;29;20036;-72
2023/06/01 00:58:14;;;;;;;14.23;8.30;;;17.10;99.90;;;;;;4928910;29;20443;-72
2023/06/01 01:00:41;;;;;;;16.20;7.82;;;17.10;99.90;;;;;;4902911;29;20032;-72
2023/06/01 01:03:08;;;;;;;14.73;7.45;;;17.10;99.90;;;;;;4921339;29;20020;-72
2023/06/01 01:05:35;;;;;;;15.05;7.75;;;17.10;99.90;;;;;;4918616;29;20032;-72
2023/06/01 01:08:14;;;;;;;17.60;8.38;;;17.10;99.90;;;;;;4918780;29;20031;-72
2023/06/01 01:11:03;;;;;;;15.90;9.13;;;17.10;99.90;;;;;;4918665;29;20492;-72
2023/06/01 01:13:50;;;;;;;15.02;8.38;;;17.10;99.90;;;;;;4924217;29;20043;-72
2023/06/01 01:16:34;;;;;;;14.02;8.27;;;17.00;99.90;;;;;;4902586;29;20107;-72
2023/06/01 01:19:21;;;;;;;18.23;9.65;;;17.00;99.90;;;;;;4901688;29;20032;-72
2023/06/01 01:21:57;;;;;;;16.95;8.07;;;17.00;99.90;;;;;;4901738;29;20614;-72
2023/06/01 01:24:55;;;;;;;17.33;8.02;;;17.00;99.90;;;;;;4901334;29;20492;-72
2023/06/01 01:27:55;;;;;;;11.23;6.70;;;17.00;99.90;;;;;;4901605;29;20480;-73
2023/06/01 01:30:23;;;;;;;19.05;9.15;;;17.00;99.90;;;;;;4901160;29;20172;-73
2023/06/01 01:32:51;;;;;;;15.57;7.53;;;17.00;99.90;;;;;;4918546;29;20020;-72
2023/06/01 01:35:17;;;;;;;15.23;8.40;;;17.00;99.90;;;;;;4901064;29;20083;-72
2023/06/01 01:37:54;;;;;;;14.82;8.23;;;17.00;99.90;;;;;;4901409;29;20400;-73
2023/06/01 01:40:20;;;;;;;15.95;8.35;;;17.00;99.90;;;;;;4900958;29;20039;-72
2023/06/01 01:42:48;;;;;;;16.00;8.73;;;17.00;99.90;;;;;;4918083;29;20032;-73
2023/06/01 01:45:16;;;;;;;14.95;8.38;;;17.00;99.90;;;;;;4901302;29;20168;-72
2023/06/01 01:48:16;;;;;;;16.08;8.50;;;16.90;99.90;;;;;;4917464;29;20507;-72
2023/06/01 01:50:52;;;;;;;17.73;9.00;;;16.90;99.90;;;;;;4914528;29;20488;-73
2023/06/01 01:53:19;;;;;;;16.33;8.82;;;16.90;99.90;;;;;;4901144;29;20043;-71
2023/06/01 01:55:48;;;;;;;15.32;8.50;;;16.90;99.90;;;;;;4905081;29;20429;-74
2023/06/01 01:58:15;;;;;;;14.35;7.97;;;16.90;99.90;;;;;;4919635;29;20044;-74
2023/06/01 02:00:43;;;;;;;16.75;8.48;;;16.90;99.90;;;;;;4901442;29;20050;-74
2023/06/01 02:03:16;;;;;;;20.00;9.98;;;16.90;99.90;;;;;;4904178;29;20548;-74
2023/06/01 02:05:42;;;;;;;15.88;8.50;;;16.90;99.90;;;;;;4901911;29;20551;-74
2023/06/01 02:08:07;;;;;;;16.83;9.32;;;16.90;99.90;;;;;;4928043;29;20469;-74
2023/06/01 02:10:34;;;;;;;15.13;8.68;;;16.80;99.90;;;;;;4904389;29;20043;-75
2023/06/01 02:13:00;;;;;;;14.68;7.68;;;16.80;99.90;;;;;;4919772;29;20024;-72
2023/06/01 02:15:26;;;;;;;15.27;8.48;;;16.90;99.90;;;;;;4906907;29;20035;-72
2023/06/01 02:17:53;;;;;;;20.48;9.18;;;16.80;99.90;;;;;;4900565;29;20024;-73
2023/06/01 02:20:20;;;;;;;18.85;9.15;;;16.80;99.90;;;;;;4900560;29;20392;-72
2023/06/01 02:22:45;;;;;;;15.60;8.55;;;16.70;99.90;;;;;;4907216;29;20032;-72
2023/06/01 02:25:11;;;;;;;20.50;9.70;;;16.70;99.90;;;;;;4908610;29;20539;-73
2023/06/01 02:27:37;;;;;;;19.40;10.13;;;16.70;99.90;;;;;;4918714;29;20036;-73
2023/06/01 02:30:06;;;;;;;16.95;9.60;;;16.80;99.90;;;;;;4917288;29;20060;-73
2023/06/01 02:32:32;;;;;;;19.83;9.07;;;16.70;99.90;;;;;;4917205;29;20027;-72
2023/06/01 02:34:58;;;;;;;17.98;9.57;;;16.60;99.90;;;;;;4917160;29;20061;-72
2023/06/01 02:37:24;;;;;;;17.85;8.63;;;16.60;99.90;;;;;;4900262;29;20048;-73
2023/06/01 02:39:50;;;;;;;21.02;9.18;;;16.50;99.90;;;;;;4901136;29;20046;-72
2023/06/01 02:42:16;;;;;;;18.00;8.77;;;16.60;99.90;;;;;;4900371;29;20036;-72
2023/06/01 02:44:42;;;;;;;19.90;9.80;;;16.60;99.90;;;;;;4916696;29;20503;-72
2023/06/01 02:47:09;;;;;;;13.75;8.00;;;16.60;99.90;;;;;;4900348;29;20200;-72
2023/06/01 02:49:37;;;;;;;16.52;8.82;;;16.70;99.90;;;;;;4899578;29;20059;-72
2023/06/01 02:52:03;;;;;;;16.05;8.57;;;16.70;99.90;;;;;;4916821;29;20047;-72
2023/06/01 02:54:29;;;;;;;16.90;9.23;;;16.70;99.90;;;;;;4917180;29;20127;-72
2023/06/01 02:56:56;;;;;;;21.05;9.40;;;16.80;99.90;;;;;;4908400;29;20036;-73
2023/06/01 02:59:41;;;;;;;22.33;9.48;;;16.80;99.90;;;;;;4903928;29;20038;-73
2023/06/01 03:02:07;;;;;;;17.63;10.40;;;16.80;99.90;;;;;;4921158;29;20020;-73
2023/06/01 03:04:32;;;;;;;22.23;9.90;;;16.80;99.90;;;;;;4901339;29;20032;-73
2023/06/01 03:07:01;;;;;;;16.77;9.77;;;16.80;99.90;;;;;;4905807;29;20392;-73
2023/06/01 03:09:34;;;;;;;17.60;9.13;;;16.80;99.90;;;;;;4902713;29;20388;-73
2023/06/01 03:12:24;;;;;;;19.05;10.27;;;16.90;99.90;;;;;;4885176;29;20051;-73
2023/06/01 03:14:49;;;;;;;18.85;11.15;;;17.00;99.90;;;;;;4877084;29;20033;-73
2023/06/01 03:17:15;;;;;;;19.98;12.07;;;17.00;99.90;;;;;;4866066;29;20069;-73
2023/06/01 03:19:41;;;;;;;20.63;11.75;;;17.10;99.90;;;;;;4891414;29;20090;-73
2023/06/01 03:22:17;;;;;;;19.60;11.35;;;17.00;99.90;;;;;;4879405;29;20436;-73
2023/06/01 03:24:44;;;;;;;18.30;11.43;;;17.10;99.90;;;;;;4895322;29;20151;-73
2023/06/01 03:27:13;;;;;;;21.25;10.98;;;17.20;99.90;;;;;;4879066;29;20473;-73
2023/06/01 03:29:39;;;;;;;22.52;12.63;;;17.30;99.90;;;;;;4895392;29;20060;-73
2023/06/01 03:32:05;;;;;;;20.25;11.13;;;17.40;99.90;;;;;;4894951;29;20111;-73
2023/06/01 03:34:32;;;;;;;22.27;10.93;;;17.40;99.90;;;;;;4879599;29;20073;-73
2023/06/01 03:36:59;;;;;;;20.35;11.63;;;17.50;99.90;;;;;;4879049;29;20083;-73
2023/06/01 03:39:24;;;;;;;21.80;10.95;;;17.70;99.90;;;;;;4878572;29;20068;-73
2023/06/01 03:41:50;;;;;;;17.90;10.27;;;17.90;99.90;;;;;;4879262;29;20421;-73
2023/06/01 03:44:16;;;;;;;19.67;12.45;;;18.50;99.90;;;;;;4864017;29;20085;-73
2023/06/01 03:46:43;;;;;;;23.60;14.43;;;19.40;99.90;;;;;;4870699;29;20055;-73
2023/06/01 03:49:10;;;;;;;33.72;22.77;;;20.00;99.90;;;;;;4879943;29;20041;-73
2023/06/01 03:51:36;;;;;;;31.10;19.60;;;20.40;99.90;;;;;;4886742;29;20032;-73
2023/06/01 03:54:02;;;;;;;19.73;14.07;;;20.90;99.90;;;;;;4899828;29;20028;-73
2023/06/01 03:56:28;;;;;;;14.88;8.88;;;21.60;99.90;;;;;;4900134;29;20519;-73
2023/06/01 03:58:58;;;;;;;16.05;8.77;;;22.50;99.90;;;;;;4898791;29;20028;-73
2023/06/01 04:01:28;;;;;;;16.92;9.27;;;22.90;99.90;;;;;;4906405;29;20035;-73
2023/06/01 04:03:57;;;;;;;15.80;9.80;;;;;;;;;;4908819;29;20122;-72
2023/06/01 04:06:24;;;;;;;15.77;9.50;;;;;;;;;;4915337;29;20031;-72
2023/06/01 04:08:55;;;;;;;12.70;7.35;;;24.30;99.90;;;;;;4913754;29;20107;-73
2023/06/01 04:11:22;;;;;;;13.23;7.53;;;24.50;99.90;;;;;;4916282;29;20031;-72
2023/06/01 04:13:48;;;;;;;16.55;9.20;;;24.70;99.90;;;;;;4915744;29;20111;-73
2023/06/01 04:16:15;;;;;;;14.18;8.10;;;24.90;99.90;;;;;;4898061;29;21653;-73
2023/06/01 04:18:42;;;;;;;13.27;7.28;;;24.90;99.90;;;;;;4909753;29;20041;-73
2023/06/01 04:21:15;;;;;;;16.63;7.60;;;25.00;99.90;;;;;;4903999;29;20024;-73
2023/06/01 04:23:42;;;;;;;12.45;6.55;;;25.00;99.90;;;;;;4904548;29;20025;-73
2023/06/01 04:26:09;;;;;;;12.65;7.00;;;25.00;99.90;;;;;;4899871;29;20036;-72
2023/06/01 04:28:36;;;;;;;15.82;7.25;;;25.30;99.90;;;;;;4893640;29;20036;-73
2023/06/01 04:31:02;;;;;;;14.82;6.90;;;26.00;99.00;;;;;;4898339;29;20036;-72
2023/06/01 04:33:29;;;;;;;13.45;8.10;;;26.60;98.80;;;;;;4905130;29;20639;-74
2023/06/01 04:35:55;;;;;;;11.13;6.47;;;26.90;96.80;;;;;;4908477;29;20084;-74
2023/06/01 04:38:24;;;;;;;14.93;7.35;;;27.00;95.00;;;;;;4902135;29;20040;-73
2023/06/01 04:40:53;;;;;;;11.93;6.85;;;27.00;94.80;;;;;;4898552;29;20132;-74
2023/06/01 04:43:19;;;;;;;10.57;6.72;;;26.80;94.20;;;;;;4898626;29;20096;-73
2023/06/01 04:45:46;;;;;;;12.25;6.85;;;26.40;94.40;;;;;;4918075;29;20047;-74
2023/06/01 04:48:14;;;;;;;13.10;7.38;;;26.70;94.10;;;;;;4901603;29;20036;-73
2023/06/01 04:50:59;;;;;;;12.65;7.15;;;27.20;94.50;;;;;;4898296;29;20522;-73
2023/06/01 04:53:26;;;;;;;12.25;6.07;;;27.30;94.70;;;;;;4898001;29;20052;-73
2023/06/01 04:55:56;;;;;;;12.43;6.78;;;26.80;94.00;;;;;;4898734;29;20119;-73
2023/06/01 04:58:22;;;;;;;17.40;6.63;;;25.50;95.70;;;;;;4916243;29;20025;-73
2023/06/01 05:00:48;;;;;;;14.77;6.70;;;25.60;97.60;;;;;;4898515;29;20421;-74
2023/06/01 05:03:14;;;;;;;10.85;6.43;;;24.70;99.90;;;;;;4902625;29;20067;-74
2023/06/01 05:05:39;;;;;;;10.40;6.32;;;24.60;99.90;;;;;;4898493;29;20397;-74
2023/06/01 05:08:06;;;;;;;11.95;5.47;;;24.30;99.90;;;;;;4899167;29;20043;-74
2023/06/01 05:10:32;;;;;;;18.85;6.00;;;24.10;99.90;;;;;;4898192;29;20056;-74
2023/06/01 05:12:57;;;;;;;10.98;6.03;;;24.30;99.90;;;;;;4915355;29;20028;-74
2023/06/01 05:15:23;;;;;;;12.90;6.15;;;24.20;99.90;;;;;;4897534;29;20400;-74
2023/06/01 05:17:50;;;;;;;13.75;6.82;;;23.90;99.90;;;;;;4900957;29;20024;-74
2023/06/01 05:20:18;;;;;;;14.45;7.35;;;24.10;99.90;;;;;;4924070;29;20039;-73
2023/06/01 05:22:49;;;;;;;13.70;6.93;;;23.90;99.90;;;;;;4900055;29;20032;-73
2023/06/01 05:25:15;;;;;;;14.00;6.68;;;23.70;99.90;;;;;;4901310;29;20032;-73
2023/06/01 05:27:41;;;;;;;9.88;6.25;;;23.70;99.90;;;;;;4918481;29;20090;-73
2023/06/01 05:30:07;;;;;;;8.13;5.00;;;23.70;99.90;;;;;;4902297;29;20047;-72
2023/06/01 05:32:33;;;;;;;10.20;6.10;;;23.80;99.90;;;;;;4901219;29;20024;-73
2023/06/01 05:35:20;;;;;;;11.95;5.28;;;23.80;99.90;;;;;;4918951;29;20563;-73
2023/06/01 05:37:47;;;;;;;10.57;6.20;;;23.90;99.90;;;;;;4919847;29;20048;-73
2023/06/01 05:40:12;;;;;;;10.88;7.18;;;24.10;99.90;;;;;;4901312;29;20043;-73
2023/06/01 05:42:39;;;;;;;11.48;6.32;;;23.80;99.90;;;;;;4918233;29;20024;-72
2023/06/01 05:45:05;;;;;;;15.18;6.82;;;23.70;99.90;;;;;;4918186;29;20035;-73
2023/06/01 05:47:31;;;;;;;13.10;5.75;;;23.60;99.90;;;;;;4901198;29;20496;-73
2023/06/01 05:49:57;;;;;;;13.93;6.72;;;23.90;99.90;;;;;;4902092;29;20024;-73
2023/06/01 05:52:23;;;;;;;10.43;5.80;;;24.10;99.90;;;;;;4926355;29;20630;-74
2023/06/01 05:54:50;;;;;;;9.75;5.47;;;23.80;99.90;;;;;;4905247;29;20047;-73
2023/06/01 05:57:16;;;;;;;11.95;5.95;;;23.70;99.90;;;;;;4890764;29;20028;-74
2023/06/01 05:59:43;;;;;;;13.48;6.22;;;23.50;99.90;;;;;;4900823;29;20039;-74
2023/06/01 06:02:09;;;;;;;8.98;5.30;;;23.20;99.90;;;;;;4902992;29;20127;-73
2023/06/01 06:04:34;;;;;;;9.25;5.82;;;23.70;99.90;;;;;;4923990;29;20031;-73
2023/06/01 06:07:00;;;;;;;10.32;5.07;;;23.40;99.90;;;;;;4918843;29;20026;-72
2023/06/01 06:09:26;;;;;;;11.65;6.20;;;23.40;99.90;;;;;;4920995;29;20488;-72
2023/06/01 06:11:52;;;;;;;9.70;5.55;;;23.70;99.90;;;;;;4926741;29;20038;-73
2023/06/01 06:14:18;;;;;;;16.17;6.75;;;23.80;99.90;;;;;;4921643;29;20031;-74
2023/06/01 06:16:43;;;;;;;11.98;5.10;;;23.90;99.90;;;;;;4917838;29;20128;-73
2023/06/01 06:19:09;;;;;;;8.48;4.80;;;24.00;99.90;;;;;;4917262;29;20023;-74
2023/06/01 06:21:36;;;;;;;9.70;5.65;;;24.10;99.90;;;;;;4921414;29;20535;-73
2023/06/01 06:24:03;;;;;;;10.98;5.15;;;24.30;99.90;;;;;;4922555;29;20028;-74
2023/06/01 06:26:29;;;;;;;7.70;4.88;;;23.80;99.90;;;;;;4918408;29;20035;-73
2023/06/01 06:28:55;;;;;;;10.15;5.72;;;23.80;99.90;;;;;;4905788;29;20115;-73
2023/06/01 06:31:21;;;;;;;9.25;5.95;;;24.00;99.90;;;;;;4925642;29;20571;-73
2023/06/01 06:33:48;;;;;;;10.90;5.50;;;24.10;99.90;;;;;;4921016;29;20031;-73
2023/06/01 06:36:14;;;;;;;7.40;4.53;;;24.30;99.90;;;;;;4916938;29;20024;-75
2023/06/01 06:38:39;;;;;;;9.02;4.40;;;24.40;99.90;;;;;;4916896;29;20492;-74
2023/06/01 06:41:05;;;;;;;10.45;4.90;;;24.70;99.90;;;;;;4917009;29;20024;-73
2023/06/01 06:43:31;;;;;;;7.07;4.80;;;24.80;99.90;;;;;;4917540;29;20021;-74
2023/06/01 06:45:57;;;;;;;13.18;5.60;;;24.80;99.90;;;;;;4916637;29;20060;-73
2023/06/01 06:48:22;;;;;;;9.30;4.68;;;24.90;99.90;;;;;;4916882;29;20056;-74
2023/06/01 06:50:48;;;;;;;11.70;4.90;;;24.60;99.90;;;;;;4917056;29;20524;-74
2023/06/01 06:53:14;;;;;;;9.30;4.75;;;24.40;99.90;;;;;;4917703;29;20140;-73
2023/06/01 06:55:42;;;;;;;10.40;5.55;;;24.40;99.90;;;;;;4922624;29;20499;-72
2023/06/01 06:58:10;;;;;;;8.60;5.63;;;23.90;99.90;;;;;;4918024;29;20031;-73
2023/06/01 07:00:36;;;;;;;7.85;4.82;;;23.80;99.90;;;;;;4916985;29;20036;-72
2023/06/01 07:03:03;;;;;;;9.52;5.13;;;23.90;99.90;;;;;;4916589;29;20020;-73
2023/06/01 07:05:29;;;;;;;8.07;4.88;;;24.30;99.90;;;;;;4917937;29;20046;-72
2023/06/01 07:07:55;;;;;;;10.48;4.75;;;24.50;99.90;;;;;;4926487;29;20449;-72
2023/06/01 07:10:21;;;;;;;10.68;6.00;;;24.30;99.90;;;;;;4920134;29;20082;-73
2023/06/01 07:12:47;;;;;;;10.07;5.70;;;24.70;99.90;;;;;;4915597;29;20028;-74
2023/06/01 07:15:13;;;;;;;9.57;5.60;;;24.60;99.90;;;;;;4916375;29;20519;-74
2023/06/01 07:17:39;;;;;;;8.90;5.35;;;24.70;99.90;;;;;;4918550;29;20025;-73
2023/06/01 07:20:09;;;;;;;14.50;6.65;;;24.50;99.90;;;;;;4927361;29;20030;-73
2023/06/01 07:22:35;;;;;;;13.23;6.03;;;24.60;99.90;;;;;;4920870;29;20477;-73
2023/06/01 07:25:00;;;;;;;10.10;5.28;;;24.60;99.90;;;;;;4916144;29;20088;-73
2023/06/01 07:27:26;;;;;;;11.20;5.68;;;24.10;99.90;;;;;;4916470;29;20024;-73
2023/06/01 07:29:55;;;;;;;9.55;5.20;;;24.50;99.90;;;;;;4916237;29;20040;-73
2023/06/01 07:32:22;;;;;;;10.65;5.30;;;24.70;99.90;;;;;;4924846;29;20037;-74
2023/06/01 07:34:47;;;;;;;9.82;5.90;;;24.80;99.90;;;;;;4924329;29;20062;-73
2023/06/01 07:37:13;;;;;;;10.88;5.82;;;24.80;99.90;;;;;;4915692;29;20079;-73
2023/06/01 07:39:39;;;;;;;11.68;5.68;;;25.20;99.90;;;;;;4922715;29;20032;-73
2023/06/01 07:42:06;;;;;;;13.55;6.35;;;25.40;99.90;;;;;;4916084;29;20071;-74
2023/06/01 07:44:32;;;;;;;13.80;7.32;;;25.50;99.90;;;;;;4915964;29;20029;-74
2023/06/01 07:46:58;;;;;;;11.50;5.90;;;25.10;99.90;;;;;;4915868;29;20047;-73
2023/06/01 07:49:24;;;;;;;10.77;5.85;;;25.00;99.90;;;;;;4916304;29;20388;-73
2023/06/01 07:51:51;;;;;;;12.10;6.88;;;25.10;99.90;;;;;;4928198;29;20047;-73
2023/06/01 07:54:18;;;;;;;9.60;5.72;;;24.30;99.90;;;;;;4915761;29;20465;-73
2023/06/01 07:56:44;;;;;;;13.35;6.95;;;24.60;99.90;;;;;;4915770;29;20614;-73
2023/06/01 07:59:10;;;;;;;15.80;6.60;;;24.40;99.90;;;;;;4916075;29;20032;-73
2023/06/01 08:01:37;;;;;;;10.43;6.22;;;24.20;99.90;;;;;;4916350;29;20032;-73
2023/06/01 08:04:03;;;;;;;13.50;6.95;;;24.30;99.90;;;;;;4915887;29;20055;-72
2023/06/01 08:06:35;;;;;;;10.43;6.22;;;24.00;99.90;;;;;;4903203;29;20027;-74
2023/06/01 08:09:02;;;;;;;10.60;6.70;;;24.10;99.90;;;;;;4923149;29;20032;-73
2023/06/01 08:11:28;;;;;;;16.05;7.10;;;24.40;99.90;;;;;;4915778;29;20132;-73
2023/06/01 08:13:54;;;;;;;11.85;7.43;;;24.60;99.90;;;;;;4915728;29;20490;-72
2023/06/01 08:16:20;;;;;;;9.93;6.05;;;24.80;99.90;;;;;;4919986;29;20031;-72
2023/06/01 08:18:46;;;;;;;12.98;6.47;;;24.60;99.90;;;;;;4915649;29;20074;-72
2023/06/01 08:21:12;;;;;;;11.88;7.70;;;24.80;99.90;;;;;;4915755;29;20060;-72
2023/06/01 08:23:38;;;;;;;12.73;7.50;;;24.90;99.90;;;;;;4916789;29;20043;-72
2023/06/01 08:26:04;;;;;;;10.45;6.47;;;25.00;99.90;;;;;;4915705;29;20064;-73
2023/06/01 08:28:32;;;;;;;14.77;7.78;;;25.20;99.90;;;;;;4916780;29;20051;-73
2023/06/01 08:30:58;;;;;;;13.18;7.35;;;25.20;99.70;;;;;;4915411;29;20036;-73
2023/06/01 08:33:23;;;;;;;13.13;7.10;;;25.50;99.90;;;;;;4916159;29;20055;-73
2023/06/01 08:35:49;;;;;;;11.65;7.45;;;25.70;99.90;;;;;;4915461;29;20028;-72
2023/06/01 08:38:15;;;;;;;11.63;7.03;;;25.90;99.90;;;;;;4917246;29;20373;-72
2023/06/01 08:40:41;;;;;;;18.60;7.65;;;25.50;99.10;;;;;;4918916;29;20039;-72
2023/06/01 08:43:19;;;;;;;13.27;7.72;;;25.40;99.90;;;;;;4915850;29;20028;-72
2023/06/01 08:45:47;;;;;;;12.55;7.53;;;25.00;99.90;;;;;;4923072;29;20111;-72
2023/06/01 08:48:17;;;;;;;11.18;7.97;;;24.90;99.90;;;;;;4900312;29;20028;-73
2023/06/01 08:50:53;;;;;;;12.60;8.68;;;24.90;99.90;;;;;;4923553;29;20054;-73
2023/06/01 08:53:21;;;;;;;15.50;7.60;;;24.90;99.90;;;;;;4915326;29;20374;-73
2023/06/01 08:55:54;;;;;;;14.20;7.85;;;24.80;99.90;;;;;;4916714;29;20107;-72
2023/06/01 08:58:20;;;;;;;16.13;8.05;;;25.10;99.90;;;;;;4918416;29;20028;-72
2023/06/01 09:00:50;;;;;;;12.07;7.80;;;25.00;99.90;;;;;;4922057;29;20104;-73
2023/06/01 09:03:16;;;;;;;13.68;7.47;;;25.20;99.90;;;;;;4920058;29;20468;-72
2023/06/01 09:05:42;;;;;;;14.07;7.97;;;25.10;99.90;;;;;;4919786;29;20042;-73
2023/06/01 09:08:09;;;;;;;14.32;7.90;;;25.30;99.90;;;;;;4920468;29;20059;-73
2023/06/01 09:10:35;;;;;;;14.23;8.65;;;25.20;99.90;;;;;;4926787;29;20040;-72
2023/06/01 09:13:03;;;;;;;12.88;8.30;;;25.40;99.90;;;;;;4918935;29;20047;-73
2023/06/01 09:15:29;;;;;;;12.68;8.13;;;25.40;98.70;;;;;;4919607;29;20028;-73
2023/06/01 09:18:06;;;;;;;13.18;8.48;;;25.60;98.60;;;;;;4920821;29;20028;-73
2023/06/01 09:20:32;;;;;;;14.57;8.55;;;25.30;99.30;;;;;;4921902;29;20032;-73
2023/06/01 09:22:58;;;;;;;15.48;8.60;;;25.20;99.60;;;;;;4921101;29;20091;-73
2023/06/01 09:25:30;;;;;;;14.00;8.40;;;25.30;99.90;;;;;;4925324;29;20432;-73
2023/06/01 09:27:59;;;;;;;11.40;7.85;;;25.40;99.50;;;;;;4918559;29;20055;-73
2023/06/01 09:30:36;;;;;;;14.63;8.07;;;25.20;99.70;;;;;;4918200;29;20099;-73
2023/06/01 09:33:13;;;;;;;16.40;8.63;;;25.10;99.50;;;;;;4918549;29;20036;-73
2023/06/01 09:35:43;;;;;;;13.98;9.05;;;25.40;99.90;;;;;;4921576;29;20563;-73
2023/06/01 09:38:10;;;;;;;14.93;8.07;;;25.00;99.00;;;;;;4918526;29;20500;-72
2023/06/01 09:40:38;;;;;;;13.07;8.38;;;25.20;98.60;;;;;;4917863;29;20036;-73
2023/06/01 09:43:19;;;;;;;14.02;8.90;;;25.50;98.80;;;;;;4918409;29;20079;-74
2023/06/01 09:45:45;;;;;;;12.53;8.63;;;25.60;99.90;;;;;;4918470;29;20028;-74
2023/06/01 09:48:20;;;;;;;13.93;9.07;;;25.70;97.70;;;;;;4918071;29;20122;-73
2023/06/01 09:50:46;;;;;;;13.85;9.38;;;25.90;99.90;;;;;;4907910;29;20098;-73
2023/06/01 09:53:12;;;;;;;12.30;9.05;;;26.30;99.90;;;;;;4917888;29;20528;-73
2023/06/01 09:55:59;;;;;;;14.40;9.88;;;26.30;97.20;;;;;;4919378;29;20184;-72
2023/06/01 09:58:25;;;;;;;15.38;9.10;;;26.00;96.90;;;;;;4918011;29;20024;-72
2023/06/01 10:00:51;;;;;;;14.85;10.13;;;26.30;95.60;;;;;;4917871;29;20035;-72
2023/06/01 10:03:18;;;;;;;17.52;11.80;;;26.00;93.50;;;;;;4917944;29;20122;-73
2023/06/01 10:05:46;;;;;;;13.93;9.90;;;26.30;96.80;;;;;;4921388;29;20021;-73
2023/06/01 10:08:14;;;;;;;16.52;11.45;;;26.50;93.70;;;;;;4915709;29;20088;-73
2023/06/01 10:10:43;;;;;;;16.73;10.10;;;26.60;95.80;;;;;;4917609;29;20072;-74
2023/06/01 10:13:10;;;;;;;15.27;9.35;;;25.90;93.30;;;;;;4918634;29;20104;-72
2023/06/01 10:15:36;;;;;;;17.98;11.15;;;25.80;93.30;;;;;;4919172;29;20024;-73
2023/06/01 10:18:05;;;;;;;15.13;10.38;;;25.90;93.60;;;;;;4918654;29;20024;-72
2023/06/01 10:20:39;;;;;;;16.52;11.65;;;25.10;93.70;;;;;;4921270;29;20017;-75
2023/06/01 10:23:06;;;;;;;16.05;11.02;;;25.60;94.40;;;;;;4919385;29;20036;-74
2023/06/01 10:25:46;;;;;;;16.23;10.23;;;26.00;97.10;;;;;;4919276;29;20024;-74
2023/06/01 10:28:13;;;;;;;18.58;11.98;;;26.00;93.60;;;;;;4905724;29;20479;-73
2023/06/01 10:30:39;;;;;;;16.08;10.05;;;25.80;93.70;;;;;;4898128;29;20037;-74
2023/06/01 10:33:06;;;;;;;14.60;10.88;;;25.40;94.40;;;;;;4900306;29;20064;-74
2023/06/01 10:35:32;;;;;;;17.20;11.65;;;25.20;95.20;;;;;;4898734;29;20465;-73
2023/06/01 10:38:14;;;;;;;12.45;8.98;;;25.40;97.20;;;;;;4897699;29;20044;-72
2023/06/01 10:40:41;;;;;;;13.43;9.63;;;25.10;93.40;;;;;;4915189;29;20084;-73
2023/06/01 10:43:27;;;;;;;12.80;8.48;;;25.10;93.20;;;;;;4916359;29;20083;-73
2023/06/01 10:45:53;;;;;;;12.18;8.82;;;25.00;93.60;;;;;;4916983;29;20106;-75
2023/06/01 10:48:52;;;;;;;11.75;8.57;;;25.00;94.00;;;;;;4916491;29;20115;-73
2023/06/01 10:51:19;;;;;;;13.68;9.48;;;24.70;94.40;;;;;;4916776;29;20044;-71
2023/06/01 10:53:45;;;;;;;15.63;10.85;;;25.40;96.20;;;;;;4916888;29;20099;-71
2023/06/01 10:56:27;;;;;;;13.98;9.90;;;25.30;96.20;;;;;;4909961;29;20481;-71
2023/06/01 10:59:08;;;;;;;13.25;8.82;;;25.70;95.70;;;;;;4899963;29;20088;-72
2023/06/01 11:01:35;;;;;;;13.87;9.47;;;26.00;95.30;;;;;;4895891;29;20115;-72
2023/06/01 11:04:02;;;;;;;12.55;8.68;;;26.00;97.20;;;;;;4895974;29;20389;-75
2023/06/01 11:06:40;;;;;;;15.15;9.85;;;25.90;94.00;;;;;;4895635;29;20473;-76
2023/06/01 11:09:15;;;;;;;11.55;8.55;;;25.90;95.50;;;;;;4899145;29;20069;-75
2023/06/01 11:11:55;;;;;;;13.85;9.68;;;25.40;97.60;;;;;;4909395;29;20564;-74
2023/06/01 11:14:33;;;;;;;19.52;9.68;;;24.80;95.90;;;;;;4916645;29;20469;-75
2023/06/01 11:17:26;;;;;;;14.10;9.25;;;24.50;95.40;;;;;;4911749;29;20064;-73
2023/06/01 11:20:01;;;;;;;13.68;10.07;;;24.70;96.20;;;;;;4896764;29;20052;-72
2023/06/01 11:22:33;;;;;;;13.93;9.50;;;24.90;98.10;;;;;;4900520;29;20033;-72
2023/06/01 11:25:05;;;;;;;16.35;10.30;;;24.80;98.20;;;;;;4898806;29;20131;-73
2023/06/01 11:27:31;;;;;;;11.63;8.65;;;25.00;98.90;;;;;;4916717;29;20047;-72
2023/06/01 11:29:57;;;;;;;15.18;10.85;;;25.00;98.20;;;;;;4916413;29;20036;-71
2023/06/01 11:32:26;;;;;;;15.18;10.25;;;25.40;97.40;;;;;;4916341;29;20043;-72
2023/06/01 11:34:53;;;;;;;15.15;8.65;;;25.60;97.30;;;;;;4916129;29;20016;-71
2023/06/01 11:37:20;;;;;;;14.25;8.25;;;24.70;96.10;;;;;;4915834;29;20408;-72
2023/06/01 11:39:47;;;;;;;13.27;9.68;;;24.90;94.80;;;;;;4915785;29;20032;-72
2023/06/01 11:42:13;;;;;;;16.88;11.02;;;25.40;97.70;;;;;;4916449;29;20031;-72
2023/06/01 11:44:41;;;;;;;14.55;9.98;;;25.50;97.10;;;;;;4916068;29;20020;-71
2023/06/01 11:47:09;;;;;;;12.80;9.95;;;25.00;95.70;;;;;;4916365;29;20051;-76
2023/06/01 11:49:51;;;;;;;13.73;10.80;;;25.00;95.80;;;;;;4916494;29;20587;-72
2023/06/01 11:52:17;;;;;;;;;;;25.20;98.10;;;;;;4916432;29;20036;-71
2023/06/01 11:54:44;;;;;;;17.23;11.27;;;25.20;99.80;;;;;;4903631;29;19946;-71
2023/06/01 11:57:10;;;;;;;14.77;11.05;;;25.30;98.30;;;;;;4915781;29;20039;-75
2023/06/01 11:59:44;;;;;;;14.48;9.75;;;25.30;96.70;;;;;;4916018;29;20439;-75
2023/06/01 12:02:21;;;;;;;15.07;11.02;;;25.20;96.20;;;;;;4915622;29;20508;-78
2023/06/01 12:05:08;;;;;;;14.05;10.70;;;25.60;96.40;;;;;;4916197;29;20034;-71
2023/06/01 12:07:47;;;;;;;16.58;11.35;;;25.30;95.90;;;;;;4916051;29;20115;-76
2023/06/01 12:10:16;;;;;;;18.02;11.82;;;25.00;96.50;;;;;;4915400;29;20115;-72
2023/06/01 12:12:43;;;;;;;13.82;11.43;;;25.50;97.90;;;;;;4916136;29;20090;-74
2023/06/01 12:15:14;;;;;;;14.98;11.43;;;25.60;96.40;;;;;;4915955;29;20111;-72
2023/06/01 12:17:51;;;;;;;14.50;12.10;;;25.00;96.80;;;;;;4915799;29;20032;-72
2023/06/01 12:20:29;;;;;;;15.07;10.93;;;25.40;95.70;;;;;;4915904;29;20032;-71
2023/06/01 12:22:56;;;;;;;12.35;10.07;;;25.00;96.30;;;;;;4915587;29;20433;-71
2023/06/01 12:25:25;;;;;;;12.27;9.07;;;25.20;97.80;;;;;;4915413;29;20032;-72
2023/06/01 12:28:08;;;;;;;13.05;9.73;;;25.10;94.60;;;;;;4915752;29;20504;-71
2023/06/01 12:30:34;;;;;;;10.65;8.73;;;25.40;95.50;;;;;;4915674;29;20488;-72
2023/06/01 12:33:01;;;;;;;17.73;10.45;;;25.40;95.20;;;;;;4919689;29;20089;-76
2023/06/01 12:35:27;;;;;;;13.75;9.88;;;25.70;95.70;;;;;;4919511;29;20035;-72
2023/06/01 12:38:06;;;;;;;13.10;9.77;;;25.60;94.00;;;;;;4919371;29;20052;-74
2023/06/01 12:40:35;;;;;;;12.90;8.75;;;25.90;95.80;;;;;;4919644;29;20055;-72
2023/06/01 12:43:01;;;;;;;12.43;8.70;;;26.20;96.60;;;;;;4919262;29;20103;-73
2023/06/01 12:45:40;;;;;;;12.63;9.32;;;25.50;93.10;;;;;;4919395;29;20107;-75